Gradiste, Croatia

8:56 PM CEST on July 22, 2014 (GMT +0200)
Djakovo, Pasenica (IOSIJEKB3) Elev 344 ft | 45.32 °N, 18.41 °E | Change Station

Current weather conditions updated 4 minutes ago

Rain
Rain
66.5 °F
Feels Like 66.5 °F
N
1.0
Wind Variable Wind from ENE
Gusts 5.0 mph

Tomorrow is forecast to be Cooler than today. Rain with a few rumbles of thunder.

Today
High -- | Low -- °F
--% Chance of Precip.
Yesterday
High -- | Low -- °F
Precip. -- in
5:18 AM 8:23 PM
Waning Crescent, 15% visible
Pressure 29.74 in
Visibility 6.2 miles
Clouds Scattered Clouds 3700 ft
Dew Point 64 °F
Humidity 91%
Rainfall 0.64 in
Snow Depth Not available.
UV 0.0 out of 12
Pollen Not available.
Air Quality Not available.
Flu Activity Not available.
METAR LDOS 221830Z 03007KT 9999 SCT037 24/18 Q1007

More Conditions Fewer Conditions

Pressure 29.74 in
Visibility 6.2 miles
Clouds Scattered Clouds 3700 ft
Dew Point 64 °F
Humidity 91%
Rainfall 0.64 in
Snow Depth Not available.
UV 0.0 out of 12
Pollen Not available.
Air Quality Not available.
Flu Activity Not available.
METAR LDOS 221830Z 03007KT 9999 SCT037 24/18 Q1007

More Conditions Fewer Conditions

10-Day Weather Forecast

Almanac

Astronomy

Jul. 22, 2014 Rise Set
Actual Time 5:18 AM CEST 8:23 PM CEST
Civil Twilight 4:43 AM CEST 8:58 PM CEST
Nautical Twilight 3:58 AM CEST 9:44 PM CEST
Astronomical Twilight 3:03 AM CEST 10:38 PM CEST
Moon 1:41 AM CEST 4:43 PM CEST
Length of Visible Light 16h 15m
Length of Day
15h 04m
Tomorrow will be 2m 2s shorter.
Waning Crescent, 15% of the Moon is Illuminated
Today
Waning Crescent
Jul 26
New
Aug 3
First Quarter
Aug 10
Full
Aug 17
Last Quarter

Today's Extremes

Country Highs Country Lows

Community

WunderPhotos

Upload Photos

1,736,322 photos uploaded!

Nearby

Snow Depth

Not available.

Earthquake Activity

City Distance Mag. Time & Date
No recent earthquake activity has been reported nearby.
Minimum magnitude displayed is 2.5.

Coastal Water Temperatures

Place Temperature
No Stations Reporting

Nearby Weather Stations

Station Location Temp. Dew Point Humidity Wind Precip. Elev Updated Type
Djakovo, Pasenica, Đakovo 66.5 °F 64 °F 91% ENE  at  1.0 mph 0.48 in / hr 344 ft 8:51 PM CEST Rapid Fire

Show More Stations Show Fewer Stations